sensor_id;sensor_type;location;lat;lon;timestamp;temperature;humidity
54788;DHT22;59598;48.112;16.280;2022-12-18T00:00:18;-0.40;99.90
54788;DHT22;59598;48.112;16.280;2022-12-18T00:02:51;-0.40;99.90
54788;DHT22;59598;48.112;16.280;2022-12-18T00:05:28;-0.40;99.90
54788;DHT22;59598;48.112;16.280;2022-12-18T00:08:00;-0.50;99.90
54788;DHT22;59598;48.112;16.280;2022-12-18T00:10:32;-0.50;99.90
54788;DHT22;59598;48.112;16.280;2022-12-18T00:13:03;-0.50;99.90
54788;DHT22;59598;48.112;16.280;2022-12-18T00:15:45;-0.60;99.90
54788;DHT22;59598;48.112;16.280;2022-12-18T00:18:16;-0.70;99.90
54788;DHT22;59598;48.112;16.280;2022-12-18T00:20:48;-0.80;99.90
54788;DHT22;59598;48.112;16.280;2022-12-18T00:23:20;-0.80;99.90
54788;DHT22;59598;48.112;16.280;2022-12-18T00:25:51;-0.90;99.90
54788;DHT22;59598;48.112;16.280;2022-12-18T00:28:30;-0.90;99.90
54788;DHT22;59598;48.112;16.280;2022-12-18T00:31:13;-1.00;99.90
54788;DHT22;59598;48.112;16.280;2022-12-18T00:33:59;-1.10;99.90
54788;DHT22;59598;48.112;16.280;2022-12-18T00:36:33;-1.20;99.90
54788;DHT22;59598;48.112;16.280;2022-12-18T00:39:10;-1.40;99.90
54788;DHT22;59598;48.112;16.280;2022-12-18T00:41:50;-1.50;99.90
54788;DHT22;59598;48.112;16.280;2022-12-18T00:44:40;-1.60;99.90
54788;DHT22;59598;48.112;16.280;2022-12-18T00:47:13;-1.70;99.90
54788;DHT22;59598;48.112;16.280;2022-12-18T00:49:45;-1.80;99.90
54788;DHT22;59598;48.112;16.280;2022-12-18T00:52:19;-1.90;99.90
54788;DHT22;59598;48.112;16.280;2022-12-18T00:54:56;-2.00;99.90
54788;DHT22;59598;48.112;16.280;2022-12-18T00:57:27;-2.10;99.90
54788;DHT22;59598;48.112;16.280;2022-12-18T00:59:59;-2.20;99.90
54788;DHT22;59598;48.112;16.280;2022-12-18T01:02:33;-2.20;99.90
54788;DHT22;59598;48.112;16.280;2022-12-18T01:05:10;-2.30;99.90
54788;DHT22;59598;48.112;16.280;2022-12-18T01:07:47;-2.40;99.90
54788;DHT22;59598;48.112;16.280;2022-12-18T01:10:24;-2.40;99.90
54788;DHT22;59598;48.112;16.280;2022-12-18T01:12:57;-2.40;99.90
54788;DHT22;59598;48.112;16.280;2022-12-18T01:15:31;-2.40;99.90
54788;DHT22;59598;48.112;16.280;2022-12-18T01:18:02;-2.50;99.90
54788;DHT22;59598;48.112;16.280;2022-12-18T01:20:37;-2.50;99.90
54788;DHT22;59598;48.112;16.280;2022-12-18T01:23:09;-2.60;99.90
54788;DHT22;59598;48.112;16.280;2022-12-18T01:25:40;-2.60;99.90
54788;DHT22;59598;48.112;16.280;2022-12-18T01:28:12;-2.60;99.90
54788;DHT22;59598;48.112;16.280;2022-12-18T01:30:46;-2.60;99.90
54788;DHT22;59598;48.112;16.280;2022-12-18T01:33:23;-2.60;99.90
54788;DHT22;59598;48.112;16.280;2022-12-18T01:35:57;-2.60;99.90
54788;DHT22;59598;48.112;16.280;2022-12-18T01:38:31;-2.70;99.90
54788;DHT22;59598;48.112;16.280;2022-12-18T01:41:03;-2.60;99.90
54788;DHT22;59598;48.112;16.280;2022-12-18T01:46:26;-2.60;99.90
54788;DHT22;59598;48.112;16.280;2022-12-18T01:49:08;-2.60;99.90
54788;DHT22;59598;48.112;16.280;2022-12-18T01:51:39;-2.60;99.90
54788;DHT22;59598;48.112;16.280;2022-12-18T01:54:13;-2.70;99.90
54788;DHT22;59598;48.112;16.280;2022-12-18T01:56:50;-2.80;99.90
54788;DHT22;59598;48.112;16.280;2022-12-18T01:59:24;-2.80;99.90
54788;DHT22;59598;48.112;16.280;2022-12-18T02:01:59;-3.00;99.90
54788;DHT22;59598;48.112;16.280;2022-12-18T02:04:37;-3.00;99.90
54788;DHT22;59598;48.112;16.280;2022-12-18T02:10:31;-3.10;99.90
54788;DHT22;59598;48.112;16.280;2022-12-18T02:13:39;-3.10;99.90
54788;DHT22;59598;48.112;16.280;2022-12-18T02:26:06;-3.30;99.90
54788;DHT22;59598;48.112;16.280;2022-12-18T02:29:08;-3.40;99.90
54788;DHT22;59598;48.112;16.280;2022-12-18T02:32:00;-3.50;99.90
54788;DHT22;59598;48.112;16.280;2022-12-18T02:34:41;-3.60;99.90
54788;DHT22;59598;48.112;16.280;2022-12-18T02:37:18;-3.70;99.90
54788;DHT22;59598;48.112;16.280;2022-12-18T02:40:02;-3.70;99.90
54788;DHT22;59598;48.112;16.280;2022-12-18T02:42:34;-3.70;99.90
54788;DHT22;59598;48.112;16.280;2022-12-18T02:45:09;-3.80;99.90
54788;DHT22;59598;48.112;16.280;2022-12-18T02:47:44;-3.80;99.90
54788;DHT22;59598;48.112;16.280;2022-12-18T02:50:52;-3.90;99.90
54788;DHT22;59598;48.112;16.280;2022-12-18T02:53:40;-3.90;99.90
54788;DHT22;59598;48.112;16.280;2022-12-18T02:56:26;-4.00;99.90
54788;DHT22;59598;48.112;16.280;2022-12-18T02:59:31;-4.00;99.90
54788;DHT22;59598;48.112;16.280;2022-12-18T03:07:56;-4.10;99.90
54788;DHT22;59598;48.112;16.280;2022-12-18T03:10:45;-4.10;99.90
54788;DHT22;59598;48.112;16.280;2022-12-18T03:13:51;-4.20;99.90
54788;DHT22;59598;48.112;16.280;2022-12-18T03:16:31;-4.20;99.90
54788;DHT22;59598;48.112;16.280;2022-12-18T03:19:11;-4.10;99.90
54788;DHT22;59598;48.112;16.280;2022-12-18T03:21:57;-4.10;99.90
54788;DHT22;59598;48.112;16.280;2022-12-18T03:24:34;-4.10;99.90
54788;DHT22;59598;48.112;16.280;2022-12-18T03:27:18;-4.10;99.90
54788;DHT22;59598;48.112;16.280;2022-12-18T03:30:05;-4.10;99.90
54788;DHT22;59598;48.112;16.280;2022-12-18T03:35:52;-4.30;99.90
54788;DHT22;59598;48.112;16.280;2022-12-18T03:38:29;-4.50;99.90
54788;DHT22;59598;48.112;16.280;2022-12-18T03:52:27;-4.30;99.90
54788;DHT22;59598;48.112;16.280;2022-12-18T03:55:13;-4.40;99.90
54788;DHT22;59598;48.112;16.280;2022-12-18T03:57:52;-4.40;99.90
54788;DHT22;59598;48.112;16.280;2022-12-18T04:00:31;-4.50;99.90
54788;DHT22;59598;48.112;16.280;2022-12-18T04:03:07;-4.50;99.90
54788;DHT22;59598;48.112;16.280;2022-12-18T04:05:40;-4.60;99.90
54788;DHT22;59598;48.112;16.280;2022-12-18T04:08:14;-4.60;99.90
54788;DHT22;59598;48.112;16.280;2022-12-18T04:10:46;-4.60;99.90
54788;DHT22;59598;48.112;16.280;2022-12-18T04:13:25;-4.70;99.90
54788;DHT22;59598;48.112;16.280;2022-12-18T04:15:59;-4.80;99.90
54788;DHT22;59598;48.112;16.280;2022-12-18T04:18:35;-4.80;99.90
54788;DHT22;59598;48.112;16.280;2022-12-18T04:21:07;-4.80;99.90
54788;DHT22;59598;48.112;16.280;2022-12-18T04:23:43;-4.90;99.90
54788;DHT22;59598;48.112;16.280;2022-12-18T04:26:14;-4.90;99.90
54788;DHT22;59598;48.112;16.280;2022-12-18T04:28:47;-5.00;99.90
54788;DHT22;59598;48.112;16.280;2022-12-18T04:31:20;-5.00;99.90
54788;DHT22;59598;48.112;16.280;2022-12-18T04:33:52;-5.00;99.90
54788;DHT22;59598;48.112;16.280;2022-12-18T04:36:27;-5.00;99.90
54788;DHT22;59598;48.112;16.280;2022-12-18T04:38:58;-5.00;99.90
54788;DHT22;59598;48.112;16.280;2022-12-18T04:41:33;-5.00;99.90
54788;DHT22;59598;48.112;16.280;2022-12-18T04:44:07;-5.10;99.90
54788;DHT22;59598;48.112;16.280;2022-12-18T04:46:38;-5.10;99.90
54788;DHT22;59598;48.112;16.280;2022-12-18T04:49:15;-5.10;99.90
54788;DHT22;59598;48.112;16.280;2022-12-18T04:51:49;-5.10;99.90
54788;DHT22;59598;48.112;16.280;2022-12-18T04:54:24;-5.20;99.90
54788;DHT22;59598;48.112;16.280;2022-12-18T04:57:00;-5.20;99.90
54788;DHT22;59598;48.112;16.280;2022-12-18T04:59:31;-5.20;99.90
54788;DHT22;59598;48.112;16.280;2022-12-18T05:02:03;-5.20;99.90
54788;DHT22;59598;48.112;16.280;2022-12-18T05:04:36;-5.20;99.90
54788;DHT22;59598;48.112;16.280;2022-12-18T05:07:12;-5.20;99.90
54788;DHT22;59598;48.112;16.280;2022-12-18T05:09:49;-5.20;99.90
54788;DHT22;59598;48.112;16.280;2022-12-18T05:12:22;-5.20;99.90
54788;DHT22;59598;48.112;16.280;2022-12-18T05:15:06;-5.20;99.90
54788;DHT22;59598;48.112;16.280;2022-12-18T05:17:38;-5.20;99.90
54788;DHT22;59598;48.112;16.280;2022-12-18T05:20:10;-5.20;99.90
54788;DHT22;59598;48.112;16.280;2022-12-18T05:22:41;-5.30;99.90
54788;DHT22;59598;48.112;16.280;2022-12-18T05:25:21;-5.30;99.90
54788;DHT22;59598;48.112;16.280;2022-12-18T05:27:58;-5.30;99.90
54788;DHT22;59598;48.112;16.280;2022-12-18T05:30:30;-5.40;99.90
54788;DHT22;59598;48.112;16.280;2022-12-18T05:33:04;-5.40;99.90
54788;DHT22;59598;48.112;16.280;2022-12-18T05:35:43;-5.50;99.90
54788;DHT22;59598;48.112;16.280;2022-12-18T05:38:15;-5.50;99.90
54788;DHT22;59598;48.112;16.280;2022-12-18T05:40:55;-5.60;99.90
54788;DHT22;59598;48.112;16.280;2022-12-18T05:43:30;-5.60;99.90
54788;DHT22;59598;48.112;16.280;2022-12-18T05:46:08;-5.60;99.90
54788;DHT22;59598;48.112;16.280;2022-12-18T05:48:46;-5.60;99.90
54788;DHT22;59598;48.112;16.280;2022-12-18T05:51:23;-5.60;99.90
54788;DHT22;59598;48.112;16.280;2022-12-18T05:53:55;-5.60;99.90
54788;DHT22;59598;48.112;16.280;2022-12-18T05:56:26;-5.60;99.90
54788;DHT22;59598;48.112;16.280;2022-12-18T05:59:03;-5.70;99.90
54788;DHT22;59598;48.112;16.280;2022-12-18T06:01:37;-5.70;99.90
54788;DHT22;59598;48.112;16.280;2022-12-18T06:04:09;-5.70;99.90
54788;DHT22;59598;48.112;16.280;2022-12-18T06:06:43;-5.80;99.90
54788;DHT22;59598;48.112;16.280;2022-12-18T06:09:17;-5.80;99.90
54788;DHT22;59598;48.112;16.280;2022-12-18T06:11:53;-5.80;99.90
54788;DHT22;59598;48.112;16.280;2022-12-18T06:14:24;-5.70;99.90
54788;DHT22;59598;48.112;16.280;2022-12-18T06:16:56;-5.70;99.90
54788;DHT22;59598;48.112;16.280;2022-12-18T06:19:27;-5.60;99.90
54788;DHT22;59598;48.112;16.280;2022-12-18T06:21:59;-5.60;99.90
54788;DHT22;59598;48.112;16.280;2022-12-18T06:24:34;-5.60;99.90
54788;DHT22;59598;48.112;16.280;2022-12-18T06:27:07;-5.60;99.90
54788;DHT22;59598;48.112;16.280;2022-12-18T06:29:39;-5.60;99.90
54788;DHT22;59598;48.112;16.280;2022-12-18T06:32:13;-5.60;99.90
54788;DHT22;59598;48.112;16.280;2022-12-18T06:34:44;-5.60;99.90
54788;DHT22;59598;48.112;16.280;2022-12-18T06:37:16;-5.60;99.90
54788;DHT22;59598;48.112;16.280;2022-12-18T06:39:51;-5.70;99.90
54788;DHT22;59598;48.112;16.280;2022-12-18T06:42:29;-5.70;99.90
54788;DHT22;59598;48.112;16.280;2022-12-18T06:45:03;-5.70;99.90
54788;DHT22;59598;48.112;16.280;2022-12-18T06:47:40;-5.80;99.90
54788;DHT22;59598;48.112;16.280;2022-12-18T06:50:13;-5.80;99.90
54788;DHT22;59598;48.112;16.280;2022-12-18T06:52:44;-5.80;99.90
54788;DHT22;59598;48.112;16.280;2022-12-18T06:55:18;-5.80;99.90
54788;DHT22;59598;48.112;16.280;2022-12-18T06:57:52;-5.80;99.90
54788;DHT22;59598;48.112;16.280;2022-12-18T07:00:26;-5.70;99.90
54788;DHT22;59598;48.112;16.280;2022-12-18T07:03:02;-5.60;99.90
54788;DHT22;59598;48.112;16.280;2022-12-18T07:05:40;-5.60;99.90
54788;DHT22;59598;48.112;16.280;2022-12-18T07:08:14;-5.60;99.90
54788;DHT22;59598;48.112;16.280;2022-12-18T07:10:48;-5.50;99.90
54788;DHT22;59598;48.112;16.280;2022-12-18T07:13:22;-5.50;99.90
54788;DHT22;59598;48.112;16.280;2022-12-18T07:16:06;-5.40;99.90
54788;DHT22;59598;48.112;16.280;2022-12-18T07:18:38;-5.40;99.90
54788;DHT22;59598;48.112;16.280;2022-12-18T07:21:15;-5.30;99.90
54788;DHT22;59598;48.112;16.280;2022-12-18T07:23:50;-5.30;99.90
54788;DHT22;59598;48.112;16.280;2022-12-18T07:26:22;-5.20;99.90
54788;DHT22;59598;48.112;16.280;2022-12-18T07:28:58;-5.20;99.90
54788;DHT22;59598;48.112;16.280;2022-12-18T07:31:30;-5.20;99.90
54788;DHT22;59598;48.112;16.280;2022-12-18T08:02:45;-3.40;99.90
54788;DHT22;59598;48.112;16.280;2022-12-18T08:05:18;-3.40;99.90
54788;DHT22;59598;48.112;16.280;2022-12-18T08:07:54;-3.40;99.90
54788;DHT22;59598;48.112;16.280;2022-12-18T08:10:28;-3.30;99.90
54788;DHT22;59598;48.112;16.280;2022-12-18T08:13:02;-3.30;99.90
54788;DHT22;59598;48.112;16.280;2022-12-18T08:15:36;-3.20;99.90
54788;DHT22;59598;48.112;16.280;2022-12-18T08:18:12;-3.10;99.90
54788;DHT22;59598;48.112;16.280;2022-12-18T08:20:45;-2.90;99.90
54788;DHT22;59598;48.112;16.280;2022-12-18T08:23:22;-2.90;99.90
54788;DHT22;59598;48.112;16.280;2022-12-18T08:25:54;-2.80;99.90
54788;DHT22;59598;48.112;16.280;2022-12-18T08:28:28;-2.60;99.90
54788;DHT22;59598;48.112;16.280;2022-12-18T08:30:59;-2.20;99.90
54788;DHT22;59598;48.112;16.280;2022-12-18T08:33:31;-2.00;99.90
54788;DHT22;59598;48.112;16.280;2022-12-18T08:36:03;-1.70;99.90
54788;DHT22;59598;48.112;16.280;2022-12-18T08:38:37;-1.50;99.90
54788;DHT22;59598;48.112;16.280;2022-12-18T08:41:17;-1.30;99.90
54788;DHT22;59598;48.112;16.280;2022-12-18T08:43:49;-1.10;99.90
54788;DHT22;59598;48.112;16.280;2022-12-18T08:46:41;-0.90;99.90
54788;DHT22;59598;48.112;16.280;2022-12-18T08:49:12;-0.80;99.90
54788;DHT22;59598;48.112;16.280;2022-12-18T08:51:43;-0.70;99.90
54788;DHT22;59598;48.112;16.280;2022-12-18T08:54:17;-0.60;99.90
54788;DHT22;59598;48.112;16.280;2022-12-18T08:56:49;-0.40;99.90
54788;DHT22;59598;48.112;16.280;2022-12-18T08:59:30;-0.30;99.90
54788;DHT22;59598;48.112;16.280;2022-12-18T09:02:02;-0.20;99.90
54788;DHT22;59598;48.112;16.280;2022-12-18T09:04:33;-0.20;99.90
54788;DHT22;59598;48.112;16.280;2022-12-18T09:07:07;-0.20;99.90
54788;DHT22;59598;48.112;16.280;2022-12-18T09:09:40;-0.10;99.90
54788;DHT22;59598;48.112;16.280;2022-12-18T09:12:15;0.00;99.90
54788;DHT22;59598;48.112;16.280;2022-12-18T09:14:46;0.00;99.90
54788;DHT22;59598;48.112;16.280;2022-12-18T09:17:18;0.00;99.90
54788;DHT22;59598;48.112;16.280;2022-12-18T09:19:49;0.20;99.90
54788;DHT22;59598;48.112;16.280;2022-12-18T09:22:23;0.40;99.90
54788;DHT22;59598;48.112;16.280;2022-12-18T09:24:56;0.50;99.90
54788;DHT22;59598;48.112;16.280;2022-12-18T09:27:27;0.40;99.90
54788;DHT22;59598;48.112;16.280;2022-12-18T09:30:01;0.50;99.90
54788;DHT22;59598;48.112;16.280;2022-12-18T09:32:36;0.50;99.90
54788;DHT22;59598;48.112;16.280;2022-12-18T09:35:07;0.30;99.90
54788;DHT22;59598;48.112;16.280;2022-12-18T09:37:38;0.30;99.90
54788;DHT22;59598;48.112;16.280;2022-12-18T09:40:20;0.00;99.90
54788;DHT22;59598;48.112;16.280;2022-12-18T09:43:00;-0.10;99.90
54788;DHT22;59598;48.112;16.280;2022-12-18T09:45:40;-0.20;99.90
54788;DHT22;59598;48.112;16.280;2022-12-18T09:48:31;-0.30;99.90
54788;DHT22;59598;48.112;16.280;2022-12-18T09:51:16;-0.50;99.90
54788;DHT22;59598;48.112;16.280;2022-12-18T09:53:55;-0.40;99.90
54788;DHT22;59598;48.112;16.280;2022-12-18T09:56:29;-0.40;99.90
54788;DHT22;59598;48.112;16.280;2022-12-18T09:59:03;-0.50;99.90
54788;DHT22;59598;48.112;16.280;2022-12-18T10:01:39;-0.70;99.90
54788;DHT22;59598;48.112;16.280;2022-12-18T10:04:10;-0.70;99.90
54788;DHT22;59598;48.112;16.280;2022-12-18T10:09:37;-0.70;99.90
54788;DHT22;59598;48.112;16.280;2022-12-18T10:12:34;-0.50;99.90
54788;DHT22;59598;48.112;16.280;2022-12-18T10:15:23;-0.60;99.90
54788;DHT22;59598;48.112;16.280;2022-12-18T10:18:21;-0.50;99.90
54788;DHT22;59598;48.112;16.280;2022-12-18T10:21:00;-0.40;99.90
54788;DHT22;59598;48.112;16.280;2022-12-18T10:26:47;-0.70;99.90
54788;DHT22;59598;48.112;16.280;2022-12-18T10:29:19;-0.70;99.90
54788;DHT22;59598;48.112;16.280;2022-12-18T10:31:50;-0.80;99.90
54788;DHT22;59598;48.112;16.280;2022-12-18T10:34:24;-0.80;99.90
54788;DHT22;59598;48.112;16.280;2022-12-18T10:37:03;-0.80;99.90
54788;DHT22;59598;48.112;16.280;2022-12-18T10:39:39;-1.10;99.90
54788;DHT22;59598;48.112;16.280;2022-12-18T10:42:18;-1.10;99.90
54788;DHT22;59598;48.112;16.280;2022-12-18T10:45:08;-1.00;99.90
54788;DHT22;59598;48.112;16.280;2022-12-18T10:47:45;-0.90;99.90
54788;DHT22;59598;48.112;16.280;2022-12-18T10:50:32;-0.90;99.90
54788;DHT22;59598;48.112;16.280;2022-12-18T10:53:04;-0.80;99.90
54788;DHT22;59598;48.112;16.280;2022-12-18T10:55:38;-0.70;99.90
54788;DHT22;59598;48.112;16.280;2022-12-18T10:58:31;-0.70;99.90
54788;DHT22;59598;48.112;16.280;2022-12-18T11:03:42;-0.80;99.90
54788;DHT22;59598;48.112;16.280;2022-12-18T11:06:19;-0.80;99.90
54788;DHT22;59598;48.112;16.280;2022-12-18T11:09:04;-0.90;99.90
54788;DHT22;59598;48.112;16.280;2022-12-18T11:11:37;-0.80;99.90
54788;DHT22;59598;48.112;16.280;2022-12-18T11:14:28;-0.70;99.90
54788;DHT22;59598;48.112;16.280;2022-12-18T11:17:00;-0.60;99.90
54788;DHT22;59598;48.112;16.280;2022-12-18T11:19:36;-0.50;99.90
54788;DHT22;59598;48.112;16.280;2022-12-18T11:27:56;-0.80;99.90
54788;DHT22;59598;48.112;16.280;2022-12-18T11:30:30;-0.90;99.90
54788;DHT22;59598;48.112;16.280;2022-12-18T11:33:20;-0.90;99.90
54788;DHT22;59598;48.112;16.280;2022-12-18T11:36:00;-0.80;99.90
54788;DHT22;59598;48.112;16.280;2022-12-18T11:38:36;-0.50;99.90
54788;DHT22;59598;48.112;16.280;2022-12-18T11:43:58;-0.40;99.90
54788;DHT22;59598;48.112;16.280;2022-12-18T11:46:36;-0.40;99.90
54788;DHT22;59598;48.112;16.280;2022-12-18T11:49:25;-0.40;99.90
54788;DHT22;59598;48.112;16.280;2022-12-18T11:52:03;-0.30;99.90
54788;DHT22;59598;48.112;16.280;2022-12-18T11:54:35;-0.30;99.90
54788;DHT22;59598;48.112;16.280;2022-12-18T12:00:15;-0.50;99.90
54788;DHT22;59598;48.112;16.280;2022-12-18T12:06:10;-0.60;99.90
54788;DHT22;59598;48.112;16.280;2022-12-18T12:09:02;-0.50;99.90
54788;DHT22;59598;48.112;16.280;2022-12-18T12:20:44;-0.40;99.90
54788;DHT22;59598;48.112;16.280;2022-12-18T12:23:59;-0.50;99.90
54788;DHT22;59598;48.112;16.280;2022-12-18T12:32:43;-0.50;99.90
54788;DHT22;59598;48.112;16.280;2022-12-18T12:38:14;-0.60;99.90
54788;DHT22;59598;48.112;16.280;2022-12-18T12:41:06;-0.50;99.90
54788;DHT22;59598;48.112;16.280;2022-12-18T12:44:01;-0.50;99.90
54788;DHT22;59598;48.112;16.280;2022-12-18T12:46:40;-0.50;99.90
54788;DHT22;59598;48.112;16.280;2022-12-18T12:49:18;-0.50;99.90
54788;DHT22;59598;48.112;16.280;2022-12-18T12:52:06;-0.60;99.90
54788;DHT22;59598;48.112;16.280;2022-12-18T12:54:38;-0.60;99.90
54788;DHT22;59598;48.112;16.280;2022-12-18T12:57:40;-0.60;99.90
54788;DHT22;59598;48.112;16.280;2022-12-18T13:00:16;-0.50;99.90
54788;DHT22;59598;48.112;16.280;2022-12-18T13:03:03;-0.50;99.90
54788;DHT22;59598;48.112;16.280;2022-12-18T13:05:54;-0.40;99.90
54788;DHT22;59598;48.112;16.280;2022-12-18T13:08:30;-0.60;99.90
54788;DHT22;59598;48.112;16.280;2022-12-18T13:11:28;-0.70;99.90
54788;DHT22;59598;48.112;16.280;2022-12-18T13:14:36;-0.70;99.90
54788;DHT22;59598;48.112;16.280;2022-12-18T13:22:46;-0.90;99.90
54788;DHT22;59598;48.112;16.280;2022-12-18T13:25:36;-1.00;99.90
54788;DHT22;59598;48.112;16.280;2022-12-18T13:28:13;-0.90;99.90
54788;DHT22;59598;48.112;16.280;2022-12-18T13:30:51;-0.90;99.90
54788;DHT22;59598;48.112;16.280;2022-12-18T13:39:24;-0.90;99.90
54788;DHT22;59598;48.112;16.280;2022-12-18T13:44:39;-1.00;99.90
54788;DHT22;59598;48.112;16.280;2022-12-18T13:47:33;-0.90;99.90
54788;DHT22;59598;48.112;16.280;2022-12-18T13:50:25;-0.90;99.90
54788;DHT22;59598;48.112;16.280;2022-12-18T13:52:59;-0.90;99.90
54788;DHT22;59598;48.112;16.280;2022-12-18T13:55:33;-0.90;99.90
54788;DHT22;59598;48.112;16.280;2022-12-18T13:58:06;-0.90;99.90
54788;DHT22;59598;48.112;16.280;2022-12-18T14:00:41;-0.90;99.90
54788;DHT22;59598;48.112;16.280;2022-12-18T14:03:23;-0.90;99.90
54788;DHT22;59598;48.112;16.280;2022-12-18T14:06:04;-0.90;99.90
54788;DHT22;59598;48.112;16.280;2022-12-18T14:08:42;-1.00;99.90
54788;DHT22;59598;48.112;16.280;2022-12-18T14:11:22;-1.00;99.90
54788;DHT22;59598;48.112;16.280;2022-12-18T14:13:53;-1.00;99.90
54788;DHT22;59598;48.112;16.280;2022-12-18T14:16:25;-1.00;99.90
54788;DHT22;59598;48.112;16.280;2022-12-18T14:18:58;-1.00;99.90
54788;DHT22;59598;48.112;16.280;2022-12-18T14:21:32;-1.00;99.90
54788;DHT22;59598;48.112;16.280;2022-12-18T14:26:40;-1.10;99.90
54788;DHT22;59598;48.112;16.280;2022-12-18T14:29:20;-1.00;99.90
54788;DHT22;59598;48.112;16.280;2022-12-18T14:32:16;-0.90;99.90
54788;DHT22;59598;48.112;16.280;2022-12-18T14:34:53;-0.80;99.90
54788;DHT22;59598;48.112;16.280;2022-12-18T14:37:27;-0.80;99.90
54788;DHT22;59598;48.112;16.280;2022-12-18T14:40:00;-0.90;99.90
54788;DHT22;59598;48.112;16.280;2022-12-18T14:42:31;-0.90;99.90
54788;DHT22;59598;48.112;16.280;2022-12-18T14:48:38;-1.00;99.90
54788;DHT22;59598;48.112;16.280;2022-12-18T14:51:16;-1.20;99.90
54788;DHT22;59598;48.112;16.280;2022-12-18T14:54:02;-1.20;99.90
54788;DHT22;59598;48.112;16.280;2022-12-18T14:57:24;-1.20;99.90
54788;DHT22;59598;48.112;16.280;2022-12-18T14:59:38;-1.20;99.90
54788;DHT22;59598;48.112;16.280;2022-12-18T15:02:17;-1.30;99.90
54788;DHT22;59598;48.112;16.280;2022-12-18T15:05:05;-1.40;99.90
54788;DHT22;59598;48.112;16.280;2022-12-18T15:10:25;-1.40;99.90
54788;DHT22;59598;48.112;16.280;2022-12-18T15:18:14;-1.40;99.90
54788;DHT22;59598;48.112;16.280;2022-12-18T15:20:56;-1.40;99.90
54788;DHT22;59598;48.112;16.280;2022-12-18T15:23:50;-1.60;99.90
54788;DHT22;59598;48.112;16.280;2022-12-18T15:26:24;-1.50;99.90
54788;DHT22;59598;48.112;16.280;2022-12-18T15:29:02;-1.40;99.90
54788;DHT22;59598;48.112;16.280;2022-12-18T15:31:35;-1.40;99.90
54788;DHT22;59598;48.112;16.280;2022-12-18T15:34:20;-1.30;99.90
54788;DHT22;59598;48.112;16.280;2022-12-18T15:36:52;-1.30;99.90
54788;DHT22;59598;48.112;16.280;2022-12-18T15:39:24;-1.30;99.90
54788;DHT22;59598;48.112;16.280;2022-12-18T15:41:58;-1.30;99.90
54788;DHT22;59598;48.112;16.280;2022-12-18T15:44:47;-1.30;99.90
54788;DHT22;59598;48.112;16.280;2022-12-18T15:47:22;-1.10;99.90
54788;DHT22;59598;48.112;16.280;2022-12-18T15:49:58;-1.20;99.90
54788;DHT22;59598;48.112;16.280;2022-12-18T15:52:41;-1.30;99.90
54788;DHT22;59598;48.112;16.280;2022-12-18T15:55:31;-1.20;99.90
54788;DHT22;59598;48.112;16.280;2022-12-18T15:58:21;-1.10;99.90
54788;DHT22;59598;48.112;16.280;2022-12-18T16:00:52;-1.20;99.90
54788;DHT22;59598;48.112;16.280;2022-12-18T16:03:25;-1.20;99.90
54788;DHT22;59598;48.112;16.280;2022-12-18T16:05:56;-1.20;99.90
54788;DHT22;59598;48.112;16.280;2022-12-18T16:08:29;-1.10;99.90
54788;DHT22;59598;48.112;16.280;2022-12-18T16:11:01;-1.10;99.90
54788;DHT22;59598;48.112;16.280;2022-12-18T16:13:32;-1.00;99.90
54788;DHT22;59598;48.112;16.280;2022-12-18T16:16:12;-1.00;99.90
54788;DHT22;59598;48.112;16.280;2022-12-18T16:18:43;-1.00;99.90
54788;DHT22;59598;48.112;16.280;2022-12-18T16:21:17;-1.00;99.90
54788;DHT22;59598;48.112;16.280;2022-12-18T16:23:48;-1.00;99.90
54788;DHT22;59598;48.112;16.280;2022-12-18T16:26:20;-1.00;99.90
54788;DHT22;59598;48.112;16.280;2022-12-18T16:28:52;-0.90;99.90
54788;DHT22;59598;48.112;16.280;2022-12-18T16:31:24;-0.90;99.90
54788;DHT22;59598;48.112;16.280;2022-12-18T16:36:41;-0.80;99.90
54788;DHT22;59598;48.112;16.280;2022-12-18T16:39:13;-0.80;99.90
54788;DHT22;59598;48.112;16.280;2022-12-18T16:41:47;-0.80;99.90
54788;DHT22;59598;48.112;16.280;2022-12-18T16:44:19;-0.70;99.90
54788;DHT22;59598;48.112;16.280;2022-12-18T16:46:52;-0.80;99.90
54788;DHT22;59598;48.112;16.280;2022-12-18T16:49:23;-0.80;99.90
54788;DHT22;59598;48.112;16.280;2022-12-18T16:52:00;-0.80;99.90
54788;DHT22;59598;48.112;16.280;2022-12-18T16:54:32;-0.90;99.90
54788;DHT22;59598;48.112;16.280;2022-12-18T16:57:09;-0.90;99.90
54788;DHT22;59598;48.112;16.280;2022-12-18T16:59:42;-1.00;99.90
54788;DHT22;59598;48.112;16.280;2022-12-18T17:02:15;-1.20;99.90
54788;DHT22;59598;48.112;16.280;2022-12-18T17:04:52;-1.30;99.90
54788;DHT22;59598;48.112;16.280;2022-12-18T17:07:24;-1.20;99.90
54788;DHT22;59598;48.112;16.280;2022-12-18T17:09:56;-1.20;99.90
54788;DHT22;59598;48.112;16.280;2022-12-18T17:12:27;-1.30;99.90
54788;DHT22;59598;48.112;16.280;2022-12-18T17:14:58;-1.20;99.90
54788;DHT22;59598;48.112;16.280;2022-12-18T17:17:30;-1.30;99.90
54788;DHT22;59598;48.112;16.280;2022-12-18T17:20:06;-1.30;99.90
54788;DHT22;59598;48.112;16.280;2022-12-18T17:22:37;-1.30;99.90
54788;DHT22;59598;48.112;16.280;2022-12-18T17:25:08;-1.30;99.90
54788;DHT22;59598;48.112;16.280;2022-12-18T17:27:42;-1.30;99.90
54788;DHT22;59598;48.112;16.280;2022-12-18T17:30:16;-1.30;99.90
54788;DHT22;59598;48.112;16.280;2022-12-18T17:32:47;-1.20;99.90
54788;DHT22;59598;48.112;16.280;2022-12-18T17:35:21;-1.20;99.90
54788;DHT22;59598;48.112;16.280;2022-12-18T17:37:52;-1.20;99.90
54788;DHT22;59598;48.112;16.280;2022-12-18T17:40:26;-1.20;99.90
54788;DHT22;59598;48.112;16.280;2022-12-18T17:43:03;-1.10;99.90
54788;DHT22;59598;48.112;16.280;2022-12-18T17:45:36;-1.20;99.90
54788;DHT22;59598;48.112;16.280;2022-12-18T17:48:09;-1.10;99.90
54788;DHT22;59598;48.112;16.280;2022-12-18T17:50:43;-1.10;99.90
54788;DHT22;59598;48.112;16.280;2022-12-18T17:53:18;-1.10;99.90
54788;DHT22;59598;48.112;16.280;2022-12-18T17:55:59;-1.10;99.90
54788;DHT22;59598;48.112;16.280;2022-12-18T17:58:36;-1.10;99.90
54788;DHT22;59598;48.112;16.280;2022-12-18T18:01:14;-1.10;99.90
54788;DHT22;59598;48.112;16.280;2022-12-18T18:03:52;-1.00;99.90
54788;DHT22;59598;48.112;16.280;2022-12-18T18:06:30;-0.90;99.90
54788;DHT22;59598;48.112;16.280;2022-12-18T18:09:01;-0.90;99.90
54788;DHT22;59598;48.112;16.280;2022-12-18T18:11:32;-0.90;99.90
54788;DHT22;59598;48.112;16.280;2022-12-18T18:14:22;-0.90;99.90
54788;DHT22;59598;48.112;16.280;2022-12-18T18:16:56;-0.90;99.90
54788;DHT22;59598;48.112;16.280;2022-12-18T18:19:33;-0.90;99.90
54788;DHT22;59598;48.112;16.280;2022-12-18T18:22:05;-0.90;99.90
54788;DHT22;59598;48.112;16.280;2022-12-18T18:24:42;-0.90;99.90
54788;DHT22;59598;48.112;16.280;2022-12-18T18:27:14;-1.00;99.90
54788;DHT22;59598;48.112;16.280;2022-12-18T18:29:48;-1.00;99.90
54788;DHT22;59598;48.112;16.280;2022-12-18T18:32:21;-1.00;99.90
54788;DHT22;59598;48.112;16.280;2022-12-18T18:34:52;-1.00;99.90